sensor_id;sensor_type;location;lat;lon;timestamp;temperature;humidity
75190;HTU21D;69198;44.694;37.790;2024-03-29T00:00:58;12.18;39.30
75190;HTU21D;69198;44.694;37.790;2024-03-29T00:02:00;12.19;39.36
75190;HTU21D;69198;44.694;37.790;2024-03-29T00:03:04;12.19;39.43
75190;HTU21D;69198;44.694;37.790;2024-03-29T00:04:05;12.19;39.48
75190;HTU21D;69198;44.694;37.790;2024-03-29T00:05:07;12.20;39.57
75190;HTU21D;69198;44.694;37.790;2024-03-29T00:06:08;12.19;39.71
75190;HTU21D;69198;44.694;37.790;2024-03-29T00:07:09;12.20;39.81
75190;HTU21D;69198;44.694;37.790;2024-03-29T00:08:10;12.19;39.88
75190;HTU21D;69198;44.694;37.790;2024-03-29T00:09:12;12.20;39.90
75190;HTU21D;69198;44.694;37.790;2024-03-29T00:10:13;12.19;39.95
75190;HTU21D;69198;44.694;37.790;2024-03-29T00:11:14;12.18;39.97
75190;HTU21D;69198;44.694;37.790;2024-03-29T00:12:18;12.21;39.95
75190;HTU21D;69198;44.694;37.790;2024-03-29T00:13:19;12.22;39.90
75190;HTU21D;69198;44.694;37.790;2024-03-29T00:14:20;12.25;39.78
75190;HTU21D;69198;44.694;37.790;2024-03-29T00:15:21;12.27;39.65
75190;HTU21D;69198;44.694;37.790;2024-03-29T00:16:25;12.30;39.52
75190;HTU21D;69198;44.694;37.790;2024-03-29T00:17:26;12.33;39.31
75190;HTU21D;69198;44.694;37.790;2024-03-29T00:18:27;12.40;39.14
75190;HTU21D;69198;44.694;37.790;2024-03-29T00:19:28;12.41;38.85
75190;HTU21D;69198;44.694;37.790;2024-03-29T00:20:30;12.43;38.76
75190;HTU21D;69198;44.694;37.790;2024-03-29T00:21:33;12.40;38.75
75190;HTU21D;69198;44.694;37.790;2024-03-29T00:22:35;12.35;38.76
75190;HTU21D;69198;44.694;37.790;2024-03-29T00:23:35;12.33;38.68
75190;HTU21D;69198;44.694;37.790;2024-03-29T00:24:36;12.33;38.62
75190;HTU21D;69198;44.694;37.790;2024-03-29T00:25:38;12.33;38.62
75190;HTU21D;69198;44.694;37.790;2024-03-29T00:26:38;12.32;38.70
75190;HTU21D;69198;44.694;37.790;2024-03-29T00:27:39;12.32;38.83
75190;HTU21D;69198;44.694;37.790;2024-03-29T00:28:41;12.30;38.96
75190;HTU21D;69198;44.694;37.790;2024-03-29T00:29:42;12.27;39.03
75190;HTU21D;69198;44.694;37.790;2024-03-29T00:30:44;12.25;39.16
75190;HTU21D;69198;44.694;37.790;2024-03-29T00:31:45;12.20;39.29
75190;HTU21D;69198;44.694;37.790;2024-03-29T00:32:47;12.17;39.39
75190;HTU21D;69198;44.694;37.790;2024-03-29T00:33:48;12.13;39.39
75190;HTU21D;69198;44.694;37.790;2024-03-29T00:34:51;12.10;39.46
75190;HTU21D;69198;44.694;37.790;2024-03-29T00:35:52;12.05;39.56
75190;HTU21D;69198;44.694;37.790;2024-03-29T00:36:53;12.00;39.72
75190;HTU21D;69198;44.694;37.790;2024-03-29T00:37:54;11.94;39.89
75190;HTU21D;69198;44.694;37.790;2024-03-29T00:38:55;11.90;40.11
75190;HTU21D;69198;44.694;37.790;2024-03-29T00:39:56;11.86;40.34
75190;HTU21D;69198;44.694;37.790;2024-03-29T00:40:58;11.83;40.97
75190;HTU21D;69198;44.694;37.790;2024-03-29T00:41:59;11.78;41.76
75190;HTU21D;69198;44.694;37.790;2024-03-29T00:43:00;11.75;42.62
75190;HTU21D;69198;44.694;37.790;2024-03-29T00:44:01;11.72;43.66
75190;HTU21D;69198;44.694;37.790;2024-03-29T00:45:04;11.69;44.54
75190;HTU21D;69198;44.694;37.790;2024-03-29T00:46:05;11.64;45.19
75190;HTU21D;69198;44.694;37.790;2024-03-29T00:47:06;11.62;45.82
75190;HTU21D;69198;44.694;37.790;2024-03-29T00:48:07;11.60;46.28
75190;HTU21D;69198;44.694;37.790;2024-03-29T00:49:09;11.57;46.86
75190;HTU21D;69198;44.694;37.790;2024-03-29T00:50:10;11.53;47.31
75190;HTU21D;69198;44.694;37.790;2024-03-29T00:51:11;11.51;47.49
75190;HTU21D;69198;44.694;37.790;2024-03-29T00:52:12;11.48;47.67
75190;HTU21D;69198;44.694;37.790;2024-03-29T00:53:13;11.46;47.54
75190;HTU21D;69198;44.694;37.790;2024-03-29T00:54:14;11.46;47.38
75190;HTU21D;69198;44.694;37.790;2024-03-29T00:55:15;11.46;47.39
75190;HTU21D;69198;44.694;37.790;2024-03-29T00:56:17;11.45;47.20
75190;HTU21D;69198;44.694;37.790;2024-03-29T00:57:18;11.43;47.05
75190;HTU21D;69198;44.694;37.790;2024-03-29T00:58:19;11.44;47.05
75190;HTU21D;69198;44.694;37.790;2024-03-29T00:59:23;11.44;47.09
75190;HTU21D;69198;44.694;37.790;2024-03-29T01:00:24;11.44;46.95
75190;HTU21D;69198;44.694;37.790;2024-03-29T01:01:26;11.46;46.73
75190;HTU21D;69198;44.694;37.790;2024-03-29T01:02:27;11.48;46.45
75190;HTU21D;69198;44.694;37.790;2024-03-29T01:03:28;11.52;46.15
75190;HTU21D;69198;44.694;37.790;2024-03-29T01:04:31;11.57;45.79
75190;HTU21D;69198;44.694;37.790;2024-03-29T01:05:32;11.66;45.43
75190;HTU21D;69198;44.694;37.790;2024-03-29T01:06:33;11.72;45.12
75190;HTU21D;69198;44.694;37.790;2024-03-29T01:07:34;11.77;44.79
75190;HTU21D;69198;44.694;37.790;2024-03-29T01:08:36;11.84;44.56
75190;HTU21D;69198;44.694;37.790;2024-03-29T01:09:37;11.88;44.26
75190;HTU21D;69198;44.694;37.790;2024-03-29T01:10:37;11.93;43.97
75190;HTU21D;69198;44.694;37.790;2024-03-29T01:11:39;12.01;43.69
75190;HTU21D;69198;44.694;37.790;2024-03-29T01:12:40;12.06;43.40
75190;HTU21D;69198;44.694;37.790;2024-03-29T01:13:41;12.10;43.15
75190;HTU21D;69198;44.694;37.790;2024-03-29T01:14:42;12.14;42.98
75190;HTU21D;69198;44.694;37.790;2024-03-29T01:15:43;12.15;43.01
75190;HTU21D;69198;44.694;37.790;2024-03-29T01:16:44;12.17;42.90
75190;HTU21D;69198;44.694;37.790;2024-03-29T01:17:46;12.18;42.88
75190;HTU21D;69198;44.694;37.790;2024-03-29T01:18:47;12.18;42.93
75190;HTU21D;69198;44.694;37.790;2024-03-29T01:19:48;12.19;42.90
75190;HTU21D;69198;44.694;37.790;2024-03-29T01:20:49;12.18;42.90
75190;HTU21D;69198;44.694;37.790;2024-03-29T01:21:50;12.19;42.97
75190;HTU21D;69198;44.694;37.790;2024-03-29T01:22:51;12.18;43.40
75190;HTU21D;69198;44.694;37.790;2024-03-29T01:23:52;12.18;43.96
75190;HTU21D;69198;44.694;37.790;2024-03-29T01:24:53;12.16;44.30
75190;HTU21D;69198;44.694;37.790;2024-03-29T01:25:54;12.16;44.40
75190;HTU21D;69198;44.694;37.790;2024-03-29T01:26:55;12.13;44.38
75190;HTU21D;69198;44.694;37.790;2024-03-29T01:27:56;12.15;44.25
75190;HTU21D;69198;44.694;37.790;2024-03-29T01:28:57;12.15;43.95
75190;HTU21D;69198;44.694;37.790;2024-03-29T01:29:58;12.18;43.64
75190;HTU21D;69198;44.694;37.790;2024-03-29T01:30:59;12.22;43.40
75190;HTU21D;69198;44.694;37.790;2024-03-29T01:32:00;12.25;43.51
75190;HTU21D;69198;44.694;37.790;2024-03-29T01:33:01;12.25;43.76
75190;HTU21D;69198;44.694;37.790;2024-03-29T01:34:02;12.25;43.95
75190;HTU21D;69198;44.694;37.790;2024-03-29T01:35:07;12.26;43.90
75190;HTU21D;69198;44.694;37.790;2024-03-29T01:36:08;12.27;43.69
75190;HTU21D;69198;44.694;37.790;2024-03-29T01:37:09;12.31;43.50
75190;HTU21D;69198;44.694;37.790;2024-03-29T01:38:14;12.32;43.49
75190;HTU21D;69198;44.694;37.790;2024-03-29T01:39:15;12.32;43.54
75190;HTU21D;69198;44.694;37.790;2024-03-29T01:40:19;12.32;43.55
75190;HTU21D;69198;44.694;37.790;2024-03-29T01:41:20;12.33;43.69
75190;HTU21D;69198;44.694;37.790;2024-03-29T01:42:21;12.32;43.93
75190;HTU21D;69198;44.694;37.790;2024-03-29T01:43:23;12.31;44.32
75190;HTU21D;69198;44.694;37.790;2024-03-29T01:44:24;12.29;44.76
75190;HTU21D;69198;44.694;37.790;2024-03-29T01:45:25;12.28;45.08
75190;HTU21D;69198;44.694;37.790;2024-03-29T01:46:26;12.26;45.25
75190;HTU21D;69198;44.694;37.790;2024-03-29T01:47:28;12.25;45.47
75190;HTU21D;69198;44.694;37.790;2024-03-29T01:48:29;12.22;45.79
75190;HTU21D;69198;44.694;37.790;2024-03-29T01:49:30;12.20;46.25
75190;HTU21D;69198;44.694;37.790;2024-03-29T01:50:32;12.18;46.74
75190;HTU21D;69198;44.694;37.790;2024-03-29T01:51:37;12.17;47.25
75190;HTU21D;69198;44.694;37.790;2024-03-29T01:52:40;12.14;47.67
75190;HTU21D;69198;44.694;37.790;2024-03-29T01:53:41;12.13;48.03
75190;HTU21D;69198;44.694;37.790;2024-03-29T01:54:43;12.11;48.25
75190;HTU21D;69198;44.694;37.790;2024-03-29T01:55:45;12.08;48.31
75190;HTU21D;69198;44.694;37.790;2024-03-29T01:56:47;12.06;48.20
75190;HTU21D;69198;44.694;37.790;2024-03-29T01:57:50;12.05;48.34
75190;HTU21D;69198;44.694;37.790;2024-03-29T01:58:57;12.03;48.57
75190;HTU21D;69198;44.694;37.790;2024-03-29T01:59:58;12.02;48.60
75190;HTU21D;69198;44.694;37.790;2024-03-29T02:01:00;12.01;48.56
75190;HTU21D;69198;44.694;37.790;2024-03-29T02:02:01;11.98;48.57
75190;HTU21D;69198;44.694;37.790;2024-03-29T02:03:04;11.98;48.67
75190;HTU21D;69198;44.694;37.790;2024-03-29T02:04:09;11.96;48.65
75190;HTU21D;69198;44.694;37.790;2024-03-29T02:05:11;11.94;48.22
75190;HTU21D;69198;44.694;37.790;2024-03-29T02:06:12;11.93;47.69
75190;HTU21D;69198;44.694;37.790;2024-03-29T02:07:14;11.94;47.12
75190;HTU21D;69198;44.694;37.790;2024-03-29T02:08:16;11.96;46.54
75190;HTU21D;69198;44.694;37.790;2024-03-29T02:09:17;12.00;46.00
75190;HTU21D;69198;44.694;37.790;2024-03-29T02:10:18;12.04;45.47
75190;HTU21D;69198;44.694;37.790;2024-03-29T02:11:20;12.07;45.01
75190;HTU21D;69198;44.694;37.790;2024-03-29T02:12:21;12.10;44.57
75190;HTU21D;69198;44.694;37.790;2024-03-29T02:13:23;12.15;44.09
75190;HTU21D;69198;44.694;37.790;2024-03-29T02:14:24;12.19;43.59
75190;HTU21D;69198;44.694;37.790;2024-03-29T02:15:25;12.23;43.09
75190;HTU21D;69198;44.694;37.790;2024-03-29T02:16:26;12.29;42.71
75190;HTU21D;69198;44.694;37.790;2024-03-29T02:17:31;12.34;42.24
75190;HTU21D;69198;44.694;37.790;2024-03-29T02:18:32;12.40;42.14
75190;HTU21D;69198;44.694;37.790;2024-03-29T02:19:33;12.44;41.92
75190;HTU21D;69198;44.694;37.790;2024-03-29T02:20:35;12.49;41.64
75190;HTU21D;69198;44.694;37.790;2024-03-29T02:21:42;12.52;41.48
75190;HTU21D;69198;44.694;37.790;2024-03-29T02:22:52;12.57;41.39
75190;HTU21D;69198;44.694;37.790;2024-03-29T02:23:59;12.60;41.58
75190;HTU21D;69198;44.694;37.790;2024-03-29T02:25:01;12.64;41.62
75190;HTU21D;69198;44.694;37.790;2024-03-29T02:26:05;12.69;41.50
75190;HTU21D;69198;44.694;37.790;2024-03-29T02:27:06;12.72;41.31
75190;HTU21D;69198;44.694;37.790;2024-03-29T02:28:07;12.77;41.21
75190;HTU21D;69198;44.694;37.790;2024-03-29T02:29:08;12.79;41.23
75190;HTU21D;69198;44.694;37.790;2024-03-29T02:30:14;12.81;41.29
75190;HTU21D;69198;44.694;37.790;2024-03-29T02:31:15;12.80;41.32
75190;HTU21D;69198;44.694;37.790;2024-03-29T02:32:17;12.82;41.33
75190;HTU21D;69198;44.694;37.790;2024-03-29T02:33:20;12.84;41.36
75190;HTU21D;69198;44.694;37.790;2024-03-29T02:34:21;12.85;41.36
75190;HTU21D;69198;44.694;37.790;2024-03-29T02:35:22;12.87;41.36
75190;HTU21D;69198;44.694;37.790;2024-03-29T02:36:23;12.89;41.26
75190;HTU21D;69198;44.694;37.790;2024-03-29T02:37:24;12.92;41.26
75190;HTU21D;69198;44.694;37.790;2024-03-29T02:38:25;12.95;41.23
75190;HTU21D;69198;44.694;37.790;2024-03-29T02:39:26;12.99;41.18
75190;HTU21D;69198;44.694;37.790;2024-03-29T02:40:27;13.03;41.12
75190;HTU21D;69198;44.694;37.790;2024-03-29T02:41:28;13.03;41.04
75190;HTU21D;69198;44.694;37.790;2024-03-29T02:42:31;13.08;40.98
75190;HTU21D;69198;44.694;37.790;2024-03-29T02:43:35;13.10;40.89
75190;HTU21D;69198;44.694;37.790;2024-03-29T02:44:36;13.10;40.78
75190;HTU21D;69198;44.694;37.790;2024-03-29T02:45:37;13.12;40.59
75190;HTU21D;69198;44.694;37.790;2024-03-29T02:46:41;13.16;40.45
75190;HTU21D;69198;44.694;37.790;2024-03-29T02:47:42;13.18;40.37
75190;HTU21D;69198;44.694;37.790;2024-03-29T02:48:43;13.22;40.22
75190;HTU21D;69198;44.694;37.790;2024-03-29T02:49:44;13.24;40.03
75190;HTU21D;69198;44.694;37.790;2024-03-29T02:50:45;13.29;39.91
75190;HTU21D;69198;44.694;37.790;2024-03-29T02:51:46;13.31;39.85
75190;HTU21D;69198;44.694;37.790;2024-03-29T02:52:47;13.33;39.78
75190;HTU21D;69198;44.694;37.790;2024-03-29T02:53:49;13.34;39.84
75190;HTU21D;69198;44.694;37.790;2024-03-29T02:54:50;13.31;39.91
75190;HTU21D;69198;44.694;37.790;2024-03-29T02:55:51;13.29;40.01
75190;HTU21D;69198;44.694;37.790;2024-03-29T02:56:52;13.25;40.13
75190;HTU21D;69198;44.694;37.790;2024-03-29T02:57:53;13.21;40.20
75190;HTU21D;69198;44.694;37.790;2024-03-29T02:58:55;13.17;40.26
75190;HTU21D;69198;44.694;37.790;2024-03-29T02:59:56;13.15;40.33
75190;HTU21D;69198;44.694;37.790;2024-03-29T03:00:57;13.10;40.39
75190;HTU21D;69198;44.694;37.790;2024-03-29T03:02:01;13.08;40.34
75190;HTU21D;69198;44.694;37.790;2024-03-29T03:03:02;13.05;40.34
75190;HTU21D;69198;44.694;37.790;2024-03-29T03:04:03;13.05;40.33
75190;HTU21D;69198;44.694;37.790;2024-03-29T03:05:05;13.04;40.26
75190;HTU21D;69198;44.694;37.790;2024-03-29T03:06:07;13.03;40.23
75190;HTU21D;69198;44.694;37.790;2024-03-29T03:07:08;13.04;40.15
75190;HTU21D;69198;44.694;37.790;2024-03-29T03:08:27;13.02;40.19
75190;HTU21D;69198;44.694;37.790;2024-03-29T03:09:48;12.99;40.23
75190;HTU21D;69198;44.694;37.790;2024-03-29T03:11:08;12.94;40.25
75190;HTU21D;69198;44.694;37.790;2024-03-29T03:12:09;12.94;40.06
75190;HTU21D;69198;44.694;37.790;2024-03-29T03:13:10;12.93;39.96
75190;HTU21D;69198;44.694;37.790;2024-03-29T03:14:11;12.91;39.85
75190;HTU21D;69198;44.694;37.790;2024-03-29T03:15:12;12.87;39.75
75190;HTU21D;69198;44.694;37.790;2024-03-29T03:16:13;12.87;39.65
75190;HTU21D;69198;44.694;37.790;2024-03-29T03:17:14;12.86;39.93
75190;HTU21D;69198;44.694;37.790;2024-03-29T03:18:15;12.84;40.30
75190;HTU21D;69198;44.694;37.790;2024-03-29T03:19:16;12.81;40.39
75190;HTU21D;69198;44.694;37.790;2024-03-29T03:20:18;12.78;40.24
75190;HTU21D;69198;44.694;37.790;2024-03-29T03:21:20;12.75;40.11
75190;HTU21D;69198;44.694;37.790;2024-03-29T03:22:21;12.71;40.17
75190;HTU21D;69198;44.694;37.790;2024-03-29T03:23:22;12.66;40.35
75190;HTU21D;69198;44.694;37.790;2024-03-29T03:24:23;12.62;40.68
75190;HTU21D;69198;44.694;37.790;2024-03-29T03:25:26;12.57;41.44
75190;HTU21D;69198;44.694;37.790;2024-03-29T03:26:27;12.50;42.26
75190;HTU21D;69198;44.694;37.790;2024-03-29T03:27:28;12.47;42.83
75190;HTU21D;69198;44.694;37.790;2024-03-29T03:28:29;12.41;43.09
75190;HTU21D;69198;44.694;37.790;2024-03-29T03:29:30;12.35;43.33
75190;HTU21D;69198;44.694;37.790;2024-03-29T03:30:31;12.30;43.52
75190;HTU21D;69198;44.694;37.790;2024-03-29T03:31:34;12.28;43.72
75190;HTU21D;69198;44.694;37.790;2024-03-29T03:32:36;12.25;44.23
75190;HTU21D;69198;44.694;37.790;2024-03-29T03:33:36;12.22;44.96
75190;HTU21D;69198;44.694;37.790;2024-03-29T03:34:38;12.21;45.70
75190;HTU21D;69198;44.694;37.790;2024-03-29T03:35:39;12.20;46.33
75190;HTU21D;69198;44.694;37.790;2024-03-29T03:36:40;12.18;46.90
75190;HTU21D;69198;44.694;37.790;2024-03-29T03:37:41;12.19;47.52
75190;HTU21D;69198;44.694;37.790;2024-03-29T03:38:45;12.18;48.05
75190;HTU21D;69198;44.694;37.790;2024-03-29T03:39:46;12.19;48.45
75190;HTU21D;69198;44.694;37.790;2024-03-29T03:40:47;12.18;48.92
75190;HTU21D;69198;44.694;37.790;2024-03-29T03:41:48;12.18;49.38
75190;HTU21D;69198;44.694;37.790;2024-03-29T03:42:49;12.18;49.71
75190;HTU21D;69198;44.694;37.790;2024-03-29T03:43:50;12.19;49.95
75190;HTU21D;69198;44.694;37.790;2024-03-29T03:44:51;12.20;50.38
75190;HTU21D;69198;44.694;37.790;2024-03-29T03:45:52;12.21;50.57
75190;HTU21D;69198;44.694;37.790;2024-03-29T03:46:55;12.23;50.56
75190;HTU21D;69198;44.694;37.790;2024-03-29T03:47:56;12.26;50.64
75190;HTU21D;69198;44.694;37.790;2024-03-29T03:48:57;12.28;50.68
75190;HTU21D;69198;44.694;37.790;2024-03-29T03:49:58;12.32;50.85
75190;HTU21D;69198;44.694;37.790;2024-03-29T03:50:59;12.33;51.10
75190;HTU21D;69198;44.694;37.790;2024-03-29T03:52:00;12.35;51.22
75190;HTU21D;69198;44.694;37.790;2024-03-29T03:53:01;12.41;51.30
75190;HTU21D;69198;44.694;37.790;2024-03-29T03:54:02;12.43;51.42
75190;HTU21D;69198;44.694;37.790;2024-03-29T03:55:03;12.46;51.47
75190;HTU21D;69198;44.694;37.790;2024-03-29T03:56:04;12.50;51.61
75190;HTU21D;69198;44.694;37.790;2024-03-29T03:57:06;12.52;51.49
75190;HTU21D;69198;44.694;37.790;2024-03-29T03:58:10;12.53;51.22
75190;HTU21D;69198;44.694;37.790;2024-03-29T03:59:11;12.57;51.01
75190;HTU21D;69198;44.694;37.790;2024-03-29T04:00:15;12.63;50.88
75190;HTU21D;69198;44.694;37.790;2024-03-29T04:01:17;12.67;50.86
75190;HTU21D;69198;44.694;37.790;2024-03-29T04:02:18;12.71;50.85
75190;HTU21D;69198;44.694;37.790;2024-03-29T04:03:19;12.75;50.75
75190;HTU21D;69198;44.694;37.790;2024-03-29T04:04:20;12.79;50.56
75190;HTU21D;69198;44.694;37.790;2024-03-29T04:05:21;12.84;50.37
75190;HTU21D;69198;44.694;37.790;2024-03-29T04:06:23;12.88;50.21
75190;HTU21D;69198;44.694;37.790;2024-03-29T04:07:27;12.93;50.18
75190;HTU21D;69198;44.694;37.790;2024-03-29T04:08:28;12.95;50.05
75190;HTU21D;69198;44.694;37.790;2024-03-29T04:09:29;13.00;49.93
75190;HTU21D;69198;44.694;37.790;2024-03-29T04:10:30;13.05;49.64
75190;HTU21D;69198;44.694;37.790;2024-03-29T04:11:31;13.09;49.29
75190;HTU21D;69198;44.694;37.790;2024-03-29T04:12:33;13.15;49.13
75190;HTU21D;69198;44.694;37.790;2024-03-29T04:13:34;13.20;49.20
75190;HTU21D;69198;44.694;37.790;2024-03-29T04:14:35;13.27;49.34
75190;HTU21D;69198;44.694;37.790;2024-03-29T04:15:36;13.33;49.21
75190;HTU21D;69198;44.694;37.790;2024-03-29T04:16:37;13.37;48.95
75190;HTU21D;69198;44.694;37.790;2024-03-29T04:17:38;13.44;48.64
75190;HTU21D;69198;44.694;37.790;2024-03-29T04:18:39;13.50;48.34
75190;HTU21D;69198;44.694;37.790;2024-03-29T04:19:40;13.56;48.08
75190;HTU21D;69198;44.694;37.790;2024-03-29T04:20:41;13.64;47.84
75190;HTU21D;69198;44.694;37.790;2024-03-29T04:21:42;13.69;47.54
75190;HTU21D;69198;44.694;37.790;2024-03-29T04:22:43;13.76;47.38
75190;HTU21D;69198;44.694;37.790;2024-03-29T04:23:46;13.82;46.99
75190;HTU21D;69198;44.694;37.790;2024-03-29T04:24:47;13.89;46.60
75190;HTU21D;69198;44.694;37.790;2024-03-29T04:25:55;13.93;46.13
75190;HTU21D;69198;44.694;37.790;2024-03-29T04:26:56;13.97;45.87
75190;HTU21D;69198;44.694;37.790;2024-03-29T04:27:58;14.00;45.52
75190;HTU21D;69198;44.694;37.790;2024-03-29T04:28:59;14.05;45.23
75190;HTU21D;69198;44.694;37.790;2024-03-29T04:30:03;14.10;45.16
75190;HTU21D;69198;44.694;37.790;2024-03-29T04:31:04;14.14;45.41
75190;HTU21D;69198;44.694;37.790;2024-03-29T04:32:06;14.20;45.67
75190;HTU21D;69198;44.694;37.790;2024-03-29T04:33:07;14.23;45.89
75190;HTU21D;69198;44.694;37.790;2024-03-29T04:34:09;14.25;46.10
75190;HTU21D;69198;44.694;37.790;2024-03-29T04:35:10;14.30;46.30
75190;HTU21D;69198;44.694;37.790;2024-03-29T04:36:11;14.33;46.53
75190;HTU21D;69198;44.694;37.790;2024-03-29T04:37:12;14.36;46.78
75190;HTU21D;69198;44.694;37.790;2024-03-29T04:38:13;14.41;46.67
75190;HTU21D;69198;44.694;37.790;2024-03-29T04:39:14;14.42;46.48
75190;HTU21D;69198;44.694;37.790;2024-03-29T04:40:15;14.47;46.25
75190;HTU21D;69198;44.694;37.790;2024-03-29T04:41:16;14.49;46.14
75190;HTU21D;69198;44.694;37.790;2024-03-29T04:42:17;14.52;46.18
75190;HTU21D;69198;44.694;37.790;2024-03-29T04:43:20;14.54;46.04
75190;HTU21D;69198;44.694;37.790;2024-03-29T04:44:26;14.56;46.03
75190;HTU21D;69198;44.694;37.790;2024-03-29T04:45:27;14.57;46.17
75190;HTU21D;69198;44.694;37.790;2024-03-29T04:46:31;14.59;46.10
75190;HTU21D;69198;44.694;37.790;2024-03-29T04:47:32;14.59;46.01
75190;HTU21D;69198;44.694;37.790;2024-03-29T04:48:33;14.60;45.92
75190;HTU21D;69198;44.694;37.790;2024-03-29T04:49:35;14.59;45.80
75190;HTU21D;69198;44.694;37.790;2024-03-29T04:50:37;14.59;45.55
75190;HTU21D;69198;44.694;37.790;2024-03-29T04:51:38;14.59;45.28
75190;HTU21D;69198;44.694;37.790;2024-03-29T04:52:40;14.60;45.04
75190;HTU21D;69198;44.694;37.790;2024-03-29T04:53:41;14.60;44.83
75190;HTU21D;69198;44.694;37.790;2024-03-29T04:54:42;14.63;44.66
75190;HTU21D;69198;44.694;37.790;2024-03-29T04:55:44;14.64;44.42
75190;HTU21D;69198;44.694;37.790;2024-03-29T04:56:49;14.67;44.17
75190;HTU21D;69198;44.694;37.790;2024-03-29T04:57:50;14.69;43.89
75190;HTU21D;69198;44.694;37.790;2024-03-29T04:58:51;14.71;43.66
75190;HTU21D;69198;44.694;37.790;2024-03-29T04:59:52;14.73;43.49
75190;HTU21D;69198;44.694;37.790;2024-03-29T05:00:54;14.74;43.22
75190;HTU21D;69198;44.694;37.790;2024-03-29T05:01:56;14.78;43.00
75190;HTU21D;69198;44.694;37.790;2024-03-29T05:02:57;14.80;42.77
75190;HTU21D;69198;44.694;37.790;2024-03-29T05:03:58;14.84;42.58
75190;HTU21D;69198;44.694;37.790;2024-03-29T05:04:59;14.85;42.54
75190;HTU21D;69198;44.694;37.790;2024-03-29T05:06:00;14.87;42.85
75190;HTU21D;69198;44.694;37.790;2024-03-29T05:07:02;14.86;43.41
75190;HTU21D;69198;44.694;37.790;2024-03-29T05:08:03;14.82;43.96
75190;HTU21D;69198;44.694;37.790;2024-03-29T05:09:04;14.79;44.22
75190;HTU21D;69198;44.694;37.790;2024-03-29T05:10:05;14.73;44.32
75190;HTU21D;69198;44.694;37.790;2024-03-29T05:11:10;14.71;44.00
75190;HTU21D;69198;44.694;37.790;2024-03-29T05:12:14;14.69;43.48
75190;HTU21D;69198;44.694;37.790;2024-03-29T05:13:16;14.67;43.14
75190;HTU21D;69198;44.694;37.790;2024-03-29T05:14:20;14.64;43.06
75190;HTU21D;69198;44.694;37.790;2024-03-29T05:15:22;14.63;43.14
75190;HTU21D;69198;44.694;37.790;2024-03-29T05:16:23;14.60;43.13
75190;HTU21D;69198;44.694;37.790;2024-03-29T05:17:28;14.60;43.28
75190;HTU21D;69198;44.694;37.790;2024-03-29T05:18:29;14.58;43.37
75190;HTU21D;69198;44.694;37.790;2024-03-29T05:19:30;14.58;43.40
75190;HTU21D;69198;44.694;37.790;2024-03-29T05:20:31;14.59;43.42
75190;HTU21D;69198;44.694;37.790;2024-03-29T05:21:32;14.58;43.39
75190;HTU21D;69198;44.694;37.790;2024-03-29T05:22:33;14.60;43.39
75190;HTU21D;69198;44.694;37.790;2024-03-29T05:23:35;14.62;43.40
75190;HTU21D;69198;44.694;37.790;2024-03-29T05:24:36;14.63;43.40
75190;HTU21D;69198;44.694;37.790;2024-03-29T05:25:37;14.63;43.49
75190;HTU21D;69198;44.694;37.790;2024-03-29T05:26:38;14.64;43.61
75190;HTU21D;69198;44.694;37.790;2024-03-29T05:27:39;14.64;43.69
75190;HTU21D;69198;44.694;37.790;2024-03-29T05:28:40;14.66;43.68
75190;HTU21D;69198;44.694;37.790;2024-03-29T05:29:42;14.66;43.51
75190;HTU21D;69198;44.694;37.790;2024-03-29T05:30:43;14.70;43.24
75190;HTU21D;69198;44.694;37.790;2024-03-29T05:31:44;14.71;43.07
75190;HTU21D;69198;44.694;37.790;2024-03-29T05:32:45;14.75;42.95
75190;HTU21D;69198;44.694;37.790;2024-03-29T05:33:47;14.78;42.73
75190;HTU21D;69198;44.694;37.790;2024-03-29T05:34:48;14.81;42.51
75190;HTU21D;69198;44.694;37.790;2024-03-29T05:35:48;14.86;42.23
75190;HTU21D;69198;44.694;37.790;2024-03-29T05:36:49;14.87;42.10
75190;HTU21D;69198;44.694;37.790;2024-03-29T05:37:50;14.92;41.87
75190;HTU21D;69198;44.694;37.790;2024-03-29T05:38:54;14.96;41.58
75190;HTU21D;69198;44.694;37.790;2024-03-29T05:39:55;15.00;41.31
75190;HTU21D;69198;44.694;37.790;2024-03-29T05:41:05;15.04;41.27
75190;HTU21D;69198;44.694;37.790;2024-03-29T05:42:06;15.08;41.26
75190;HTU21D;69198;44.694;37.790;2024-03-29T05:43:07;15.11;41.58
75190;HTU21D;69198;44.694;37.790;2024-03-29T05:44:08;15.13;42.05
75190;HTU21D;69198;44.694;37.790;2024-03-29T05:45:26;15.11;42.45
75190;HTU21D;69198;44.694;37.790;2024-03-29T05:46:27;15.04;42.66
75190;HTU21D;69198;44.694;37.790;2024-03-29T05:47:28;15.04;42.76
75190;HTU21D;69198;44.694;37.790;2024-03-29T05:48:29;15.03;42.98
75190;HTU21D;69198;44.694;37.790;2024-03-29T05:49:31;15.04;43.37
75190;HTU21D;69198;44.694;37.790;2024-03-29T05:50:33;15.02;43.61
75190;HTU21D;69198;44.694;37.790;2024-03-29T05:51:34;15.01;43.68
75190;HTU21D;69198;44.694;37.790;2024-03-29T05:52:35;15.02;43.37
75190;HTU21D;69198;44.694;37.790;2024-03-29T05:53:36;15.03;43.02
75190;HTU21D;69198;44.694;37.790;2024-03-29T05:54:37;15.07;42.65
75190;HTU21D;69198;44.694;37.790;2024-03-29T05:55:38;15.09;42.43
75190;HTU21D;69198;44.694;37.790;2024-03-29T05:56:40;15.09;42.34
75190;HTU21D;69198;44.694;37.790;2024-03-29T05:57:41;15.10;42.10
75190;HTU21D;69198;44.694;37.790;2024-03-29T05:58:42;15.13;41.90
75190;HTU21D;69198;44.694;37.790;2024-03-29T05:59:43;15.16;41.81
75190;HTU21D;69198;44.694;37.790;2024-03-29T06:00:44;15.21;41.69
75190;HTU21D;69198;44.694;37.790;2024-03-29T06:01:46;15.23;41.55
75190;HTU21D;69198;44.694;37.790;2024-03-29T06:02:47;15.23;41.48
75190;HTU21D;69198;44.694;37.790;2024-03-29T06:03:49;15.26;41.60
75190;HTU21D;69198;44.694;37.790;2024-03-29T06:04:56;15.28;41.88
75190;HTU21D;69198;44.694;37.790;2024-03-29T06:05:57;15.31;41.87
75190;HTU21D;69198;44.694;37.790;2024-03-29T06:06:59;15.31;41.73
75190;HTU21D;69198;44.694;37.790;2024-03-29T06:08:00;15.34;41.86
75190;HTU21D;69198;44.694;37.790;2024-03-29T06:09:02;15.36;42.12
75190;HTU21D;69198;44.694;37.790;2024-03-29T06:10:03;15.36;42.43
75190;HTU21D;69198;44.694;37.790;2024-03-29T06:11:05;15.34;42.54
75190;HTU21D;69198;44.694;37.790;2024-03-29T06:12:06;15.34;42.71
75190;HTU21D;69198;44.694;37.790;2024-03-29T06:13:12;15.33;43.06
75190;HTU21D;69198;44.694;37.790;2024-03-29T06:14:33;15.29;43.39
75190;HTU21D;69198;44.694;37.790;2024-03-29T06:15:54;15.26;43.74
75190;HTU21D;69198;44.694;37.790;2024-03-29T06:17:13;15.24;44.00
75190;HTU21D;69198;44.694;37.790;2024-03-29T06:18:23;15.24;44.07
75190;HTU21D;69198;44.694;37.790;2024-03-29T06:19:25;15.22;43.67
75190;HTU21D;69198;44.694;37.790;2024-03-29T06:20:28;15.19;43.15